SAS96X EGPH-BIKF
Flight info
| Callsign | SAS96X |
|---|---|
| Flight time | N/A |
| Altitude | 33000 |
| Route | GRICE P600 ASNUD DCT NESDI DCT RUGID DCT ATSIX/M079F340 DCT 6100N01234W DCT ALDAN DCT ASRUN ASRUN3K |
| Aircraft | A321/M-SDE3FGHIRWY/LB1 |
Departure
| Time | 2026-04-26 13:47 |
|---|---|
| Airport | Edinburgh Airport (EGPH) |
Arrival
| Time | N/A |
|---|---|
| Airport | Keflavik International Airport (BIKF) |
| Time | Latitude | Longitude | Altitude | Speed | Heading |
|---|---|---|---|---|---|
| 2026-04-26 13:18 | 55.94771 | -3.35548 | 113 ft | 0 kts | 208° |
| 2026-04-26 13:35 | 55.94776 | -3.35544 | 116 ft | 3 kts | 208° |
| 2026-04-26 13:35 | 55.94798 | -3.35522 | 112 ft | 4 kts | 224° |
| 2026-04-26 13:35 | 55.94810 | -3.35484 | 113 ft | 4 kts | 269° |
| 2026-04-26 13:36 | 55.94806 | -3.35446 | 114 ft | 1 kts | 298° |
| 2026-04-26 13:36 | 55.94805 | -3.35445 | 114 ft | 0 kts | 298° |
| 2026-04-26 13:38 | 55.94806 | -3.35446 | 114 ft | 0 kts | 298° |
| 2026-04-26 13:39 | 55.94808 | -3.35454 | 112 ft | 2 kts | 298° |
| 2026-04-26 13:39 | 55.94829 | -3.35523 | 113 ft | 9 kts | 298° |
| 2026-04-26 13:39 | 55.94866 | -3.35643 | 115 ft | 12 kts | 298° |
| 2026-04-26 13:39 | 55.94905 | -3.35771 | 112 ft | 12 kts | 298° |
| 2026-04-26 13:40 | 55.94975 | -3.35856 | 115 ft | 12 kts | 4° |
| 2026-04-26 13:40 | 55.95049 | -3.35855 | 115 ft | 4 kts | 330° |
| 2026-04-26 13:40 | 55.95060 | -3.35874 | 114 ft | 2 kts | 300° |
| 2026-04-26 13:40 | 55.95065 | -3.35892 | 115 ft | 4 kts | 298° |
| 2026-04-26 13:41 | 55.95094 | -3.36002 | 115 ft | 14 kts | 290° |
| 2026-04-26 13:41 | 55.95134 | -3.36228 | 114 ft | 22 kts | 278° |
| 2026-04-26 13:41 | 55.95070 | -3.36464 | 114 ft | 22 kts | 233° |
| 2026-04-26 13:41 | 55.94992 | -3.36692 | 114 ft | 22 kts | 238° |
| 2026-04-26 13:42 | 55.94914 | -3.36917 | 114 ft | 22 kts | 239° |
| 2026-04-26 13:42 | 55.94852 | -3.37108 | 112 ft | 6 kts | 240° |
| 2026-04-26 13:42 | 55.94827 | -3.37185 | 115 ft | 9 kts | 240° |
| 2026-04-26 13:42 | 55.94788 | -3.37305 | 112 ft | 15 kts | 239° |
| 2026-04-26 13:43 | 55.94725 | -3.37492 | 111 ft | 21 kts | 238° |
| 2026-04-26 13:43 | 55.94648 | -3.37717 | 113 ft | 21 kts | 239° |
| 2026-04-26 13:43 | 55.94577 | -3.37927 | 114 ft | 21 kts | 239° |
| 2026-04-26 13:43 | 55.94493 | -3.38175 | 114 ft | 20 kts | 239° |
| 2026-04-26 13:44 | 55.94425 | -3.38374 | 115 ft | 21 kts | 238° |
| 2026-04-26 13:44 | 55.94350 | -3.38595 | 115 ft | 21 kts | 239° |
| 2026-04-26 13:44 | 55.94283 | -3.38811 | 114 ft | 19 kts | 256° |
| 2026-04-26 13:44 | 55.94328 | -3.38911 | 113 ft | 9 kts | 341° |
| 2026-04-26 13:45 | 55.94390 | -3.38970 | 114 ft | 12 kts | 334° |
| 2026-04-26 13:45 | 55.94400 | -3.38975 | 114 ft | 3 kts | 346° |
| 2026-04-26 13:45 | 55.94428 | -3.38914 | 114 ft | 3 kts | 80° |
| 2026-04-26 13:45 | 55.94442 | -3.38882 | 112 ft | 4 kts | 54° |
| 2026-04-26 13:46 | 55.94464 | -3.38826 | 113 ft | 16 kts | 56° |
| 2026-04-26 13:46 | 55.94598 | -3.38438 | 112 ft | 76 kts | 59° |
| 2026-04-26 13:46 | 55.95139 | -3.36843 | 111 ft | 155 kts | 59° |
| 2026-04-26 13:46 | 55.95753 | -3.35047 | 595 ft | 166 kts | 58° |
| 2026-04-26 13:47 | 55.96328 | -3.33359 | 1507 ft | 157 kts | 59° |
| 2026-04-26 13:47 | 55.97094 | -3.31730 | 1905 ft | 183 kts | 41° |
| 2026-04-26 13:47 | 55.98115 | -3.30205 | 2328 ft | 204 kts | 38° |
| 2026-04-26 13:47 | 55.99219 | -3.28628 | 2681 ft | 224 kts | 36° |
| 2026-04-26 13:48 | 56.00696 | -3.27424 | 3200 ft | 231 kts | 13° |
| 2026-04-26 13:48 | 56.02311 | -3.27036 | 3380 ft | 247 kts | 356° |
| 2026-04-26 13:48 | 56.04046 | -3.27623 | 3659 ft | 260 kts | 335° |
| 2026-04-26 13:48 | 56.05127 | -3.28657 | 4062 ft | 261 kts | 321° |
| 2026-04-26 13:49 | 56.06634 | -3.31748 | 4943 ft | 259 kts | 294° |
| 2026-04-26 13:49 | 56.07122 | -3.34199 | 5482 ft | 259 kts | 283° |
| 2026-04-26 13:49 | 56.07641 | -3.37623 | 5941 ft | 263 kts | 283° |
| 2026-04-26 13:49 | 56.07955 | -3.39761 | 5998 ft | 262 kts | 283° |
| 2026-04-26 13:50 | 56.08599 | -3.43928 | 6088 ft | 266 kts | 291° |
| 2026-04-26 13:50 | 56.09538 | -3.46477 | 6700 ft | 271 kts | 313° |
| 2026-04-26 13:50 | 56.11133 | -3.48695 | 7396 ft | 275 kts | 322° |
| 2026-04-26 13:50 | 56.12212 | -3.50053 | 7847 ft | 277 kts | 322° |
| 2026-04-26 13:51 | 56.13804 | -3.52030 | 8493 ft | 280 kts | 322° |
| 2026-04-26 13:51 | 56.15378 | -3.53978 | 9111 ft | 283 kts | 321° |
| 2026-04-26 13:51 | 56.17011 | -3.55999 | 9753 ft | 286 kts | 321° |
| 2026-04-26 13:51 | 56.18659 | -3.58037 | 10364 ft | 289 kts | 321° |
| 2026-04-26 13:52 | 56.20510 | -3.59745 | 10560 ft | 315 kts | 342° |
| 2026-04-26 13:52 | 56.22780 | -3.60165 | 10693 ft | 341 kts | 359° |
| 2026-04-26 13:52 | 56.25126 | -3.59562 | 10826 ft | 361 kts | 12° |
| 2026-04-26 13:52 | 56.27552 | -3.57994 | 10956 ft | 381 kts | 25° |
| 2026-04-26 13:53 | 56.29687 | -3.55620 | 11118 ft | 394 kts | 34° |
| 2026-04-26 13:53 | 56.31843 | -3.52898 | 11517 ft | 399 kts | 34° |
| 2026-04-26 13:53 | 56.34112 | -3.50005 | 12002 ft | 402 kts | 34° |
| 2026-04-26 13:53 | 56.36322 | -3.47170 | 12466 ft | 405 kts | 34° |
| 2026-04-26 13:54 | 56.38712 | -3.44084 | 13006 ft | 408 kts | 34° |
| 2026-04-26 13:54 | 56.40745 | -3.41445 | 13469 ft | 410 kts | 34° |
| 2026-04-26 13:54 | 56.42936 | -3.38590 | 13952 ft | 412 kts | 34° |
| 2026-04-26 13:55 | 56.47495 | -3.32746 | 14810 ft | 417 kts | 33° |
| 2026-04-26 13:55 | 56.48930 | -3.30967 | 15057 ft | 419 kts | 32° |
| 2026-04-26 13:55 | 56.54621 | -3.24004 | 16030 ft | 425 kts | 32° |
| 2026-04-26 13:56 | 56.56936 | -3.21154 | 16403 ft | 428 kts | 32° |
| 2026-04-26 13:56 | 56.59537 | -3.17934 | 16831 ft | 431 kts | 32° |
| 2026-04-26 13:56 | 56.61862 | -3.15088 | 17183 ft | 433 kts | 29° |
| 2026-04-26 13:56 | 56.64619 | -3.13019 | 17550 ft | 429 kts | 9° |
| 2026-04-26 13:57 | 56.67569 | -3.12651 | 17922 ft | 424 kts | 351° |
| 2026-04-26 13:57 | 56.70452 | -3.13805 | 18302 ft | 419 kts | 335° |
| 2026-04-26 13:57 | 56.72999 | -3.16242 | 18665 ft | 414 kts | 320° |
| 2026-04-26 13:57 | 56.75081 | -3.19802 | 19002 ft | 409 kts | 305° |
| 2026-04-26 13:58 | 56.76234 | -3.22612 | 19237 ft | 409 kts | 303° |